Hines Creek, Canada
Current Conditions -  °F | °C
As of 12:00 PM on Thursday 23 Oct 2014 (Local Time) from CYPE Reporting Station
Overcast Overcast  
Wind Chill: 27°   Ceiling: 5500
Heat Index: 36°   Visibility: 15mi
Dew Point: 32°   Wind: 13mph
Humidity: 87%   Direction: 360°N
Pressure: 29.42"   Gusts: 20mph
Location:  56.23°N, 118.6°W
Report Text: CYPE 231800Z 36011G17KT 15SM FEW004 OVC055 02/00 A2942 RMK SF1SC7 SLP990
Loading
Personal Weather Stations






























Interactive Weather Map New forecast layout! Learn more

10-Day Weather Forecast

Advertisements
Track Severe Weather on mobile